sensor_id;sensor_type;location;lat;lon;timestamp;P1;durP1;ratioP1;P2;durP2;ratioP2
37495;SDS011;23346;52.088;4.746;2023-07-29T00:01:00;144.50;;;136.80;;
37495;SDS011;23346;52.088;4.746;2023-07-29T00:03:26;128.73;;;121.50;;
37495;SDS011;23346;52.088;4.746;2023-07-29T00:05:54;132.52;;;125.32;;
37495;SDS011;23346;52.088;4.746;2023-07-29T00:08:20;128.77;;;121.75;;
37495;SDS011;23346;52.088;4.746;2023-07-29T00:10:46;133.50;;;126.03;;
37495;SDS011;23346;52.088;4.746;2023-07-29T00:13:12;122.78;;;116.10;;
37495;SDS011;23346;52.088;4.746;2023-07-29T00:15:38;119.18;;;113.10;;
37495;SDS011;23346;52.088;4.746;2023-07-29T00:18:04;127.28;;;120.30;;
37495;SDS011;23346;52.088;4.746;2023-07-29T00:20:30;125.63;;;118.93;;
37495;SDS011;23346;52.088;4.746;2023-07-29T00:22:56;120.72;;;114.30;;
37495;SDS011;23346;52.088;4.746;2023-07-29T00:25:23;117.45;;;110.90;;
37495;SDS011;23346;52.088;4.746;2023-07-29T00:27:49;123.15;;;116.50;;
37495;SDS011;23346;52.088;4.746;2023-07-29T00:30:15;124.47;;;116.65;;
37495;SDS011;23346;52.088;4.746;2023-07-29T00:32:41;131.00;;;123.75;;
37495;SDS011;23346;52.088;4.746;2023-07-29T00:35:07;127.95;;;120.97;;
37495;SDS011;23346;52.088;4.746;2023-07-29T00:37:33;132.90;;;124.88;;
37495;SDS011;23346;52.088;4.746;2023-07-29T00:39:59;138.02;;;130.63;;
37495;SDS011;23346;52.088;4.746;2023-07-29T00:42:25;144.55;;;136.27;;
37495;SDS011;23346;52.088;4.746;2023-07-29T00:44:51;136.23;;;128.85;;
37495;SDS011;23346;52.088;4.746;2023-07-29T00:47:17;141.27;;;133.35;;
37495;SDS011;23346;52.088;4.746;2023-07-29T00:49:43;140.60;;;133.00;;
37495;SDS011;23346;52.088;4.746;2023-07-29T00:52:10;156.85;;;148.25;;
37495;SDS011;23346;52.088;4.746;2023-07-29T00:54:37;158.15;;;149.48;;
37495;SDS011;23346;52.088;4.746;2023-07-29T00:57:04;140.38;;;131.95;;
37495;SDS011;23346;52.088;4.746;2023-07-29T00:59:30;151.18;;;143.07;;
37495;SDS011;23346;52.088;4.746;2023-07-29T01:01:57;139.40;;;131.70;;
37495;SDS011;23346;52.088;4.746;2023-07-29T01:04:23;141.40;;;133.60;;
37495;SDS011;23346;52.088;4.746;2023-07-29T01:06:50;134.40;;;127.30;;
37495;SDS011;23346;52.088;4.746;2023-07-29T01:11:59;137.00;;;129.00;;
37495;SDS011;23346;52.088;4.746;2023-07-29T01:17:00;133.50;;;125.68;;
37495;SDS011;23346;52.088;4.746;2023-07-29T01:22:14;132.57;;;125.53;;
37495;SDS011;23346;52.088;4.746;2023-07-29T01:24:40;141.75;;;133.50;;
37495;SDS011;23346;52.088;4.746;2023-07-29T01:27:06;140.52;;;132.45;;
37495;SDS011;23346;52.088;4.746;2023-07-29T01:29:32;152.13;;;143.68;;
37495;SDS011;23346;52.088;4.746;2023-07-29T01:32:01;150.35;;;142.00;;
37495;SDS011;23346;52.088;4.746;2023-07-29T01:34:32;147.02;;;138.98;;
37495;SDS011;23346;52.088;4.746;2023-07-29T01:37:00;156.35;;;147.88;;
37495;SDS011;23346;52.088;4.746;2023-07-29T01:39:29;150.98;;;142.07;;
37495;SDS011;23346;52.088;4.746;2023-07-29T01:41:58;156.95;;;148.38;;
37495;SDS011;23346;52.088;4.746;2023-07-29T01:44:24;178.48;;;168.60;;
37495;SDS011;23346;52.088;4.746;2023-07-29T01:46:51;175.80;;;166.02;;
37495;SDS011;23346;52.088;4.746;2023-07-29T01:49:17;171.35;;;161.50;;
37495;SDS011;23346;52.088;4.746;2023-07-29T01:51:42;170.95;;;161.45;;
37495;SDS011;23346;52.088;4.746;2023-07-29T01:54:08;165.88;;;156.70;;
37495;SDS011;23346;52.088;4.746;2023-07-29T01:56:34;164.90;;;155.80;;
37495;SDS011;23346;52.088;4.746;2023-07-29T01:59:00;165.77;;;156.48;;
37495;SDS011;23346;52.088;4.746;2023-07-29T02:01:27;169.27;;;159.30;;
37495;SDS011;23346;52.088;4.746;2023-07-29T02:03:53;152.82;;;144.68;;
37495;SDS011;23346;52.088;4.746;2023-07-29T02:06:22;151.10;;;142.70;;
37495;SDS011;23346;52.088;4.746;2023-07-29T02:08:48;137.48;;;130.48;;
37495;SDS011;23346;52.088;4.746;2023-07-29T02:11:14;144.85;;;136.98;;
37495;SDS011;23346;52.088;4.746;2023-07-29T02:13:40;134.77;;;127.60;;
37495;SDS011;23346;52.088;4.746;2023-07-29T02:16:05;146.13;;;138.52;;
37495;SDS011;23346;52.088;4.746;2023-07-29T02:18:31;136.82;;;129.57;;
37495;SDS011;23346;52.088;4.746;2023-07-29T02:20:57;149.70;;;141.23;;
37495;SDS011;23346;52.088;4.746;2023-07-29T02:23:23;148.80;;;140.98;;
37495;SDS011;23346;52.088;4.746;2023-07-29T02:25:49;143.68;;;136.13;;
37495;SDS011;23346;52.088;4.746;2023-07-29T02:28:15;138.57;;;130.85;;
37495;SDS011;23346;52.088;4.746;2023-07-29T02:30:41;142.10;;;134.88;;
37495;SDS011;23346;52.088;4.746;2023-07-29T02:33:09;149.70;;;141.45;;
37495;SDS011;23346;52.088;4.746;2023-07-29T02:35:35;154.48;;;146.27;;
37495;SDS011;23346;52.088;4.746;2023-07-29T02:38:01;148.98;;;141.23;;
37495;SDS011;23346;52.088;4.746;2023-07-29T02:40:27;157.77;;;149.65;;
37495;SDS011;23346;52.088;4.746;2023-07-29T02:42:54;158.10;;;149.73;;
37495;SDS011;23346;52.088;4.746;2023-07-29T02:45:20;153.85;;;145.85;;
37495;SDS011;23346;52.088;4.746;2023-07-29T02:47:46;153.45;;;145.32;;
37495;SDS011;23346;52.088;4.746;2023-07-29T02:50:12;145.57;;;138.13;;
37495;SDS011;23346;52.088;4.746;2023-07-29T02:52:38;145.45;;;138.05;;
37495;SDS011;23346;52.088;4.746;2023-07-29T02:55:04;137.93;;;131.02;;
37495;SDS011;23346;52.088;4.746;2023-07-29T02:57:30;139.48;;;132.27;;
37495;SDS011;23346;52.088;4.746;2023-07-29T02:59:56;144.68;;;136.63;;
37495;SDS011;23346;52.088;4.746;2023-07-29T03:02:22;149.77;;;141.55;;
37495;SDS011;23346;52.088;4.746;2023-07-29T03:04:48;147.93;;;139.82;;
37495;SDS011;23346;52.088;4.746;2023-07-29T03:07:14;146.75;;;139.18;;
37495;SDS011;23346;52.088;4.746;2023-07-29T03:09:41;148.88;;;141.07;;
37495;SDS011;23346;52.088;4.746;2023-07-29T03:12:07;164.73;;;155.73;;
37495;SDS011;23346;52.088;4.746;2023-07-29T03:14:33;149.68;;;141.70;;
37495;SDS011;23346;52.088;4.746;2023-07-29T03:17:02;168.02;;;159.02;;
37495;SDS011;23346;52.088;4.746;2023-07-29T03:19:29;178.30;;;168.73;;
37495;SDS011;23346;52.088;4.746;2023-07-29T03:21:55;183.60;;;173.88;;
37495;SDS011;23346;52.088;4.746;2023-07-29T03:24:21;195.30;;;184.80;;
37495;SDS011;23346;52.088;4.746;2023-07-29T03:26:47;187.52;;;177.68;;
37495;SDS011;23346;52.088;4.746;2023-07-29T03:29:13;193.23;;;183.00;;
37495;SDS011;23346;52.088;4.746;2023-07-29T03:31:39;191.50;;;181.45;;
37495;SDS011;23346;52.088;4.746;2023-07-29T03:34:05;205.48;;;194.40;;
37495;SDS011;23346;52.088;4.746;2023-07-29T03:36:31;191.10;;;180.68;;
37495;SDS011;23346;52.088;4.746;2023-07-29T03:38:57;176.00;;;166.68;;
37495;SDS011;23346;52.088;4.746;2023-07-29T03:41:23;169.27;;;160.18;;
37495;SDS011;23346;52.088;4.746;2023-07-29T03:43:49;163.43;;;154.65;;
37495;SDS011;23346;52.088;4.746;2023-07-29T03:46:15;162.40;;;153.60;;
37495;SDS011;23346;52.088;4.746;2023-07-29T03:48:44;173.85;;;164.32;;
37495;SDS011;23346;52.088;4.746;2023-07-29T03:51:10;167.80;;;158.57;;
37495;SDS011;23346;52.088;4.746;2023-07-29T03:53:36;160.25;;;151.55;;
37495;SDS011;23346;52.088;4.746;2023-07-29T03:56:02;166.20;;;157.18;;
37495;SDS011;23346;52.088;4.746;2023-07-29T03:58:28;185.07;;;175.23;;
37495;SDS011;23346;52.088;4.746;2023-07-29T04:00:54;160.23;;;151.75;;
37495;SDS011;23346;52.088;4.746;2023-07-29T04:03:20;160.48;;;151.65;;
37495;SDS011;23346;52.088;4.746;2023-07-29T04:05:46;159.55;;;151.13;;
37495;SDS011;23346;52.088;4.746;2023-07-29T04:08:12;165.88;;;156.98;;
37495;SDS011;23346;52.088;4.746;2023-07-29T04:10:38;169.02;;;160.40;;
37495;SDS011;23346;52.088;4.746;2023-07-29T04:13:04;163.18;;;154.43;;
37495;SDS011;23346;52.088;4.746;2023-07-29T04:15:30;165.25;;;156.52;;
37495;SDS011;23346;52.088;4.746;2023-07-29T04:17:56;153.48;;;145.30;;
37495;SDS011;23346;52.088;4.746;2023-07-29T04:20:22;155.55;;;147.00;;
37495;SDS011;23346;52.088;4.746;2023-07-29T04:22:48;143.27;;;135.85;;
37495;SDS011;23346;52.088;4.746;2023-07-29T04:25:14;138.07;;;130.75;;
37495;SDS011;23346;52.088;4.746;2023-07-29T04:27:40;133.93;;;126.60;;
37495;SDS011;23346;52.088;4.746;2023-07-29T04:30:06;123.43;;;116.80;;
37495;SDS011;23346;52.088;4.746;2023-07-29T04:32:32;132.77;;;125.03;;
37495;SDS011;23346;52.088;4.746;2023-07-29T04:34:58;133.38;;;126.13;;
37495;SDS011;23346;52.088;4.746;2023-07-29T04:37:24;127.80;;;120.95;;
37495;SDS011;23346;52.088;4.746;2023-07-29T04:39:50;134.38;;;127.05;;
37495;SDS011;23346;52.088;4.746;2023-07-29T04:42:16;133.02;;;125.45;;
37495;SDS011;23346;52.088;4.746;2023-07-29T04:44:41;126.97;;;120.00;;
37495;SDS011;23346;52.088;4.746;2023-07-29T04:47:08;132.68;;;125.07;;
37495;SDS011;23346;52.088;4.746;2023-07-29T04:49:34;131.63;;;124.35;;
37495;SDS011;23346;52.088;4.746;2023-07-29T04:52:00;124.50;;;117.80;;
37495;SDS011;23346;52.088;4.746;2023-07-29T04:54:26;133.85;;;126.45;;
37495;SDS011;23346;52.088;4.746;2023-07-29T04:56:52;126.80;;;119.95;;
37495;SDS011;23346;52.088;4.746;2023-07-29T04:59:17;133.23;;;125.95;;
37495;SDS011;23346;52.088;4.746;2023-07-29T05:01:43;119.28;;;112.63;;
37495;SDS011;23346;52.088;4.746;2023-07-29T05:04:09;135.52;;;127.68;;
37495;SDS011;23346;52.088;4.746;2023-07-29T05:06:35;137.68;;;129.95;;
37495;SDS011;23346;52.088;4.746;2023-07-29T05:09:23;123.85;;;116.93;;
37495;SDS011;23346;52.088;4.746;2023-07-29T05:11:48;149.00;;;140.55;;
37495;SDS011;23346;52.088;4.746;2023-07-29T05:14:14;127.05;;;119.32;;
37495;SDS011;23346;52.088;4.746;2023-07-29T05:16:41;136.77;;;128.68;;
37495;SDS011;23346;52.088;4.746;2023-07-29T05:19:07;133.25;;;125.75;;
37495;SDS011;23346;52.088;4.746;2023-07-29T05:21:33;136.68;;;128.85;;
37495;SDS011;23346;52.088;4.746;2023-07-29T05:23:59;128.57;;;120.82;;
37495;SDS011;23346;52.088;4.746;2023-07-29T05:26:25;136.35;;;128.65;;
37495;SDS011;23346;52.088;4.746;2023-07-29T05:28:51;151.60;;;142.95;;
37495;SDS011;23346;52.088;4.746;2023-07-29T05:31:17;126.28;;;119.13;;
37495;SDS011;23346;52.088;4.746;2023-07-29T05:33:43;132.85;;;124.97;;
37495;SDS011;23346;52.088;4.746;2023-07-29T05:36:09;132.68;;;125.35;;
37495;SDS011;23346;52.088;4.746;2023-07-29T05:38:35;116.88;;;109.95;;
37495;SDS011;23346;52.088;4.746;2023-07-29T05:41:01;112.75;;;106.30;;
37495;SDS011;23346;52.088;4.746;2023-07-29T05:43:27;117.00;;;110.18;;
37495;SDS011;23346;52.088;4.746;2023-07-29T05:45:53;126.35;;;119.00;;
37495;SDS011;23346;52.088;4.746;2023-07-29T05:48:19;129.27;;;122.05;;
37495;SDS011;23346;52.088;4.746;2023-07-29T05:50:45;121.22;;;114.43;;
37495;SDS011;23346;52.088;4.746;2023-07-29T05:53:11;143.45;;;135.75;;
37495;SDS011;23346;52.088;4.746;2023-07-29T05:55:37;132.88;;;125.43;;
37495;SDS011;23346;52.088;4.746;2023-07-29T05:58:03;137.57;;;130.05;;
37495;SDS011;23346;52.088;4.746;2023-07-29T06:00:29;131.70;;;124.35;;
37495;SDS011;23346;52.088;4.746;2023-07-29T06:02:55;130.85;;;123.50;;
37495;SDS011;23346;52.088;4.746;2023-07-29T06:05:21;143.90;;;135.90;;
37495;SDS011;23346;52.088;4.746;2023-07-29T06:07:47;157.57;;;149.00;;
37495;SDS011;23346;52.088;4.746;2023-07-29T06:10:14;183.40;;;173.02;;
37495;SDS011;23346;52.088;4.746;2023-07-29T06:12:43;181.88;;;171.55;;
37495;SDS011;23346;52.088;4.746;2023-07-29T06:15:09;173.85;;;164.05;;
37495;SDS011;23346;52.088;4.746;2023-07-29T06:17:35;171.45;;;161.85;;
37495;SDS011;23346;52.088;4.746;2023-07-29T06:20:01;189.63;;;179.13;;
37495;SDS011;23346;52.088;4.746;2023-07-29T06:22:28;196.13;;;184.98;;
37495;SDS011;23346;52.088;4.746;2023-07-29T06:24:54;187.00;;;175.82;;
37495;SDS011;23346;52.088;4.746;2023-07-29T06:27:19;179.73;;;169.57;;
37495;SDS011;23346;52.088;4.746;2023-07-29T06:29:45;177.10;;;167.00;;
37495;SDS011;23346;52.088;4.746;2023-07-29T06:32:11;177.70;;;167.40;;
37495;SDS011;23346;52.088;4.746;2023-07-29T06:34:37;173.18;;;163.63;;
37495;SDS011;23346;52.088;4.746;2023-07-29T06:37:03;177.35;;;167.68;;
37495;SDS011;23346;52.088;4.746;2023-07-29T06:39:29;163.50;;;154.40;;
37495;SDS011;23346;52.088;4.746;2023-07-29T06:41:55;180.88;;;170.90;;
37495;SDS011;23346;52.088;4.746;2023-07-29T06:44:21;178.65;;;168.52;;
37495;SDS011;23346;52.088;4.746;2023-07-29T06:46:47;167.57;;;158.43;;
37495;SDS011;23346;52.088;4.746;2023-07-29T06:49:13;197.00;;;186.43;;
37495;SDS011;23346;52.088;4.746;2023-07-29T06:51:39;211.30;;;199.80;;
37495;SDS011;23346;52.088;4.746;2023-07-29T06:54:05;200.82;;;189.65;;
37495;SDS011;23346;52.088;4.746;2023-07-29T06:56:31;204.77;;;193.07;;
37495;SDS011;23346;52.088;4.746;2023-07-29T06:58:57;209.55;;;198.00;;
37495;SDS011;23346;52.088;4.746;2023-07-29T07:01:23;188.68;;;178.57;;
37495;SDS011;23346;52.088;4.746;2023-07-29T07:03:49;195.45;;;184.85;;
37495;SDS011;23346;52.088;4.746;2023-07-29T07:06:15;175.68;;;166.50;;
37495;SDS011;23346;52.088;4.746;2023-07-29T07:08:41;161.15;;;152.68;;
37495;SDS011;23346;52.088;4.746;2023-07-29T07:11:08;160.65;;;152.13;;
37495;SDS011;23346;52.088;4.746;2023-07-29T07:13:34;177.48;;;168.10;;
37495;SDS011;23346;52.088;4.746;2023-07-29T07:16:00;165.15;;;156.70;;
37495;SDS011;23346;52.088;4.746;2023-07-29T07:18:26;152.05;;;144.38;;
37495;SDS011;23346;52.088;4.746;2023-07-29T07:20:52;168.32;;;159.65;;
37495;SDS011;23346;52.088;4.746;2023-07-29T07:23:18;181.98;;;172.93;;
37495;SDS011;23346;52.088;4.746;2023-07-29T07:25:44;162.60;;;154.35;;
37495;SDS011;23346;52.088;4.746;2023-07-29T07:28:10;169.85;;;161.05;;
37495;SDS011;23346;52.088;4.746;2023-07-29T07:30:39;167.73;;;159.07;;
37495;SDS011;23346;52.088;4.746;2023-07-29T07:33:09;163.02;;;154.60;;
37495;SDS011;23346;52.088;4.746;2023-07-29T07:35:35;217.93;;;206.20;;
37495;SDS011;23346;52.088;4.746;2023-07-29T07:38:00;201.80;;;191.02;;
37495;SDS011;23346;52.088;4.746;2023-07-29T07:40:28;151.55;;;143.90;;
37495;SDS011;23346;52.088;4.746;2023-07-29T07:42:54;170.48;;;161.23;;
37495;SDS011;23346;52.088;4.746;2023-07-29T07:45:20;168.13;;;159.55;;
37495;SDS011;23346;52.088;4.746;2023-07-29T07:47:46;157.85;;;149.63;;
37495;SDS011;23346;52.088;4.746;2023-07-29T07:50:13;173.73;;;164.43;;
37495;SDS011;23346;52.088;4.746;2023-07-29T07:52:39;173.23;;;164.25;;
37495;SDS011;23346;52.088;4.746;2023-07-29T07:55:05;160.10;;;151.90;;
37495;SDS011;23346;52.088;4.746;2023-07-29T07:57:31;135.95;;;129.13;;
37495;SDS011;23346;52.088;4.746;2023-07-29T07:59:57;120.80;;;114.85;;
37495;SDS011;23346;52.088;4.746;2023-07-29T08:02:23;151.90;;;144.23;;
37495;SDS011;23346;52.088;4.746;2023-07-29T08:04:49;156.55;;;148.43;;
37495;SDS011;23346;52.088;4.746;2023-07-29T08:07:15;150.75;;;143.20;;
37495;SDS011;23346;52.088;4.746;2023-07-29T08:09:41;164.27;;;155.57;;
37495;SDS011;23346;52.088;4.746;2023-07-29T08:12:07;133.57;;;126.63;;
37495;SDS011;23346;52.088;4.746;2023-07-29T08:14:33;130.23;;;123.45;;
37495;SDS011;23346;52.088;4.746;2023-07-29T08:16:59;122.43;;;116.18;;
37495;SDS011;23346;52.088;4.746;2023-07-29T08:19:25;167.98;;;159.38;;
37495;SDS011;23346;52.088;4.746;2023-07-29T08:21:51;85.88;;;81.70;;
37495;SDS011;23346;52.088;4.746;2023-07-29T08:24:17;101.45;;;96.13;;
37495;SDS011;23346;52.088;4.746;2023-07-29T08:26:42;104.53;;;99.22;;
37495;SDS011;23346;52.088;4.746;2023-07-29T08:29:08;95.13;;;90.45;;
37495;SDS011;23346;52.088;4.746;2023-07-29T08:31:34;151.68;;;144.25;;
37495;SDS011;23346;52.088;4.746;2023-07-29T08:34:00;145.48;;;137.20;;
37495;SDS011;23346;52.088;4.746;2023-07-29T08:36:26;104.65;;;99.43;;
37495;SDS011;23346;52.088;4.746;2023-07-29T08:38:52;96.80;;;92.13;;
37495;SDS011;23346;52.088;4.746;2023-07-29T08:41:24;101.28;;;96.13;;
37495;SDS011;23346;52.088;4.746;2023-07-29T08:43:52;107.50;;;102.28;;
37495;SDS011;23346;52.088;4.746;2023-07-29T08:46:21;112.03;;;106.47;;
37495;SDS011;23346;52.088;4.746;2023-07-29T08:48:47;97.60;;;92.63;;
37495;SDS011;23346;52.088;4.746;2023-07-29T08:51:13;155.88;;;148.13;;
37495;SDS011;23346;52.088;4.746;2023-07-29T08:53:40;97.97;;;93.25;;
37495;SDS011;23346;52.088;4.746;2023-07-29T08:56:06;88.00;;;83.65;;
37495;SDS011;23346;52.088;4.746;2023-07-29T08:58:32;123.22;;;117.22;;
37495;SDS011;23346;52.088;4.746;2023-07-29T09:00:59;90.60;;;85.43;;
37495;SDS011;23346;52.088;4.746;2023-07-29T09:03:25;99.65;;;94.80;;
37495;SDS011;23346;52.088;4.746;2023-07-29T09:05:51;87.70;;;83.30;;
37495;SDS011;23346;52.088;4.746;2023-07-29T09:08:18;92.78;;;88.28;;
37495;SDS011;23346;52.088;4.746;2023-07-29T09:10:44;90.85;;;86.13;;
37495;SDS011;23346;52.088;4.746;2023-07-29T09:13:10;113.53;;;107.72;;
37495;SDS011;23346;52.088;4.746;2023-07-29T09:15:36;93.43;;;88.55;;
37495;SDS011;23346;52.088;4.746;2023-07-29T09:18:08;90.75;;;85.47;;
37495;SDS011;23346;52.088;4.746;2023-07-29T09:20:34;95.80;;;91.13;;
37495;SDS011;23346;52.088;4.746;2023-07-29T09:23:00;93.47;;;88.47;;
37495;SDS011;23346;52.088;4.746;2023-07-29T09:25:27;187.43;;;177.23;;
37495;SDS011;23346;52.088;4.746;2023-07-29T09:27:59;108.70;;;102.95;;
37495;SDS011;23346;52.088;4.746;2023-07-29T09:30:26;123.32;;;116.97;;
37495;SDS011;23346;52.088;4.746;2023-07-29T09:32:55;143.75;;;136.57;;
37495;SDS011;23346;52.088;4.746;2023-07-29T09:35:21;123.68;;;117.45;;
37495;SDS011;23346;52.088;4.746;2023-07-29T09:37:47;122.57;;;116.25;;
37495;SDS011;23346;52.088;4.746;2023-07-29T09:40:14;136.70;;;129.57;;
37495;SDS011;23346;52.088;4.746;2023-07-29T09:42:47;148.00;;;140.55;;
37495;SDS011;23346;52.088;4.746;2023-07-29T09:45:18;157.48;;;149.18;;
37495;SDS011;23346;52.088;4.746;2023-07-29T09:47:45;162.50;;;153.52;;
37495;SDS011;23346;52.088;4.746;2023-07-29T09:50:11;169.55;;;160.25;;
37495;SDS011;23346;52.088;4.746;2023-07-29T09:52:37;137.68;;;129.68;;
37495;SDS011;23346;52.088;4.746;2023-07-29T09:55:03;118.45;;;111.60;;
37495;SDS011;23346;52.088;4.746;2023-07-29T09:57:31;104.28;;;98.22;;
37495;SDS011;23346;52.088;4.746;2023-07-29T09:59:57;105.93;;;99.78;;
37495;SDS011;23346;52.088;4.746;2023-07-29T10:02:24;99.50;;;93.95;;
37495;SDS011;23346;52.088;4.746;2023-07-29T10:04:52;113.10;;;106.68;;
37495;SDS011;23346;52.088;4.746;2023-07-29T10:07:18;146.00;;;137.85;;
37495;SDS011;23346;52.088;4.746;2023-07-29T10:09:45;156.65;;;148.50;;
37495;SDS011;23346;52.088;4.746;2023-07-29T10:12:11;150.35;;;142.23;;
37495;SDS011;23346;52.088;4.746;2023-07-29T10:14:38;126.65;;;119.57;;
37495;SDS011;23346;52.088;4.746;2023-07-29T10:17:05;137.88;;;130.40;;
37495;SDS011;23346;52.088;4.746;2023-07-29T10:19:31;128.70;;;121.47;;
37495;SDS011;23346;52.088;4.746;2023-07-29T10:21:58;117.10;;;110.68;;
37495;SDS011;23346;52.088;4.746;2023-07-29T10:24:28;155.18;;;146.80;;
37495;SDS011;23346;52.088;4.746;2023-07-29T10:26:58;139.68;;;132.20;;
37495;SDS011;23346;52.088;4.746;2023-07-29T10:29:25;138.60;;;131.07;;
37495;SDS011;23346;52.088;4.746;2023-07-29T10:31:54;164.88;;;156.18;;
37495;SDS011;23346;52.088;4.746;2023-07-29T10:34:20;138.48;;;131.30;;
37495;SDS011;23346;52.088;4.746;2023-07-29T10:36:48;163.52;;;155.20;;
37495;SDS011;23346;52.088;4.746;2023-07-29T10:39:14;169.90;;;161.27;;
37495;SDS011;23346;52.088;4.746;2023-07-29T10:47:13;180.25;;;170.90;;
37495;SDS011;23346;52.088;4.746;2023-07-29T10:49:43;161.85;;;152.80;;
37495;SDS011;23346;52.088;4.746;2023-07-29T10:52:12;179.88;;;170.20;;
37495;SDS011;23346;52.088;4.746;2023-07-29T10:54:45;169.52;;;160.45;;
37495;SDS011;23346;52.088;4.746;2023-07-29T10:57:15;155.52;;;147.20;;
37495;SDS011;23346;52.088;4.746;2023-07-29T10:59:41;147.82;;;140.15;;
37495;SDS011;23346;52.088;4.746;2023-07-29T11:02:12;142.45;;;135.10;;
37495;SDS011;23346;52.088;4.746;2023-07-29T11:04:47;135.75;;;128.98;;
37495;SDS011;23346;52.088;4.746;2023-07-29T11:09:52;113.95;;;108.15;;
37495;SDS011;23346;52.088;4.746;2023-07-29T11:12:34;101.25;;;96.13;;
37495;SDS011;23346;52.088;4.746;2023-07-29T11:15:20;103.18;;;97.80;;
37495;SDS011;23346;52.088;4.746;2023-07-29T11:17:56;90.20;;;85.50;;
37495;SDS011;23346;52.088;4.746;2023-07-29T11:20:23;93.80;;;88.75;;
37495;SDS011;23346;52.088;4.746;2023-07-29T11:22:49;59.92;;;57.10;;
37495;SDS011;23346;52.088;4.746;2023-07-29T11:25:16;61.30;;;58.17;;
37495;SDS011;23346;52.088;4.746;2023-07-29T11:27:42;72.63;;;68.88;;
37495;SDS011;23346;52.088;4.746;2023-07-29T11:30:09;77.43;;;73.47;;
37495;SDS011;23346;52.088;4.746;2023-07-29T11:32:38;114.25;;;108.22;;
37495;SDS011;23346;52.088;4.746;2023-07-29T11:35:05;81.30;;;77.25;;
37495;SDS011;23346;52.088;4.746;2023-07-29T11:37:32;94.47;;;89.88;;
37495;SDS011;23346;52.088;4.746;2023-07-29T11:39:58;69.47;;;66.03;;
37495;SDS011;23346;52.088;4.746;2023-07-29T11:42:24;87.45;;;82.90;;
37495;SDS011;23346;52.088;4.746;2023-07-29T11:44:51;113.35;;;107.45;;
37495;SDS011;23346;52.088;4.746;2023-07-29T11:47:17;128.98;;;122.32;;
37495;SDS011;23346;52.088;4.746;2023-07-29T11:49:43;136.13;;;129.02;;
37495;SDS011;23346;52.088;4.746;2023-07-29T11:52:10;128.45;;;121.93;;
37495;SDS011;23346;52.088;4.746;2023-07-29T11:54:36;108.80;;;103.18;;
37495;SDS011;23346;52.088;4.746;2023-07-29T11:57:03;128.95;;;122.43;;
37495;SDS011;23346;52.088;4.746;2023-07-29T11:59:30;131.40;;;124.85;;
37495;SDS011;23346;52.088;4.746;2023-07-29T12:01:56;138.90;;;131.98;;
37495;SDS011;23346;52.088;4.746;2023-07-29T12:04:22;145.98;;;138.68;;
37495;SDS011;23346;52.088;4.746;2023-07-29T12:06:48;134.30;;;127.53;;
37495;SDS011;23346;52.088;4.746;2023-07-29T12:09:13;148.20;;;140.23;;
37495;SDS011;23346;52.088;4.746;2023-07-29T12:11:39;142.07;;;134.43;;
37495;SDS011;23346;52.088;4.746;2023-07-29T12:14:07;129.07;;;122.38;;
37495;SDS011;23346;52.088;4.746;2023-07-29T12:16:40;188.15;;;178.00;;
37495;SDS011;23346;52.088;4.746;2023-07-29T12:19:06;138.90;;;131.30;;
37495;SDS011;23346;52.088;4.746;2023-07-29T12:21:32;138.50;;;131.52;;
37495;SDS011;23346;52.088;4.746;2023-07-29T12:23:58;193.82;;;183.27;;
37495;SDS011;23346;52.088;4.746;2023-07-29T12:26:30;130.52;;;123.70;;
37495;SDS011;23346;52.088;4.746;2023-07-29T12:28:56;150.98;;;143.20;;
37495;SDS011;23346;52.088;4.746;2023-07-29T12:31:28;126.88;;;120.20;;
37495;SDS011;23346;52.088;4.746;2023-07-29T12:33:56;124.13;;;117.63;;
37495;SDS011;23346;52.088;4.746;2023-07-29T12:36:26;129.30;;;122.78;;
37495;SDS011;23346;52.088;4.746;2023-07-29T12:38:53;127.88;;;121.32;;
37495;SDS011;23346;52.088;4.746;2023-07-29T12:41:19;131.73;;;124.90;;
37495;SDS011;23346;52.088;4.746;2023-07-29T12:43:45;136.73;;;129.93;;
37495;SDS011;23346;52.088;4.746;2023-07-29T12:46:11;140.60;;;133.52;;
37495;SDS011;23346;52.088;4.746;2023-07-29T12:48:37;124.13;;;118.03;;
37495;SDS011;23346;52.088;4.746;2023-07-29T12:51:03;158.40;;;150.07;;
37495;SDS011;23346;52.088;4.746;2023-07-29T12:53:28;120.35;;;113.95;;
37495;SDS011;23346;52.088;4.746;2023-07-29T12:55:54;118.90;;;112.78;;
37495;SDS011;23346;52.088;4.746;2023-07-29T12:58:20;116.25;;;110.25;;
37495;SDS011;23346;52.088;4.746;2023-07-29T13:00:46;65.78;;;62.55;;
37495;SDS011;23346;52.088;4.746;2023-07-29T13:03:13;57.38;;;54.33;;
37495;SDS011;23346;52.088;4.746;2023-07-29T13:05:38;69.18;;;65.70;;
37495;SDS011;23346;52.088;4.746;2023-07-29T13:08:04;82.80;;;78.72;;
37495;SDS011;23346;52.088;4.746;2023-07-29T13:10:30;72.85;;;69.30;;
37495;SDS011;23346;52.088;4.746;2023-07-29T13:12:56;74.22;;;70.18;;
37495;SDS011;23346;52.088;4.746;2023-07-29T13:15:23;80.53;;;76.68;;
37495;SDS011;23346;52.088;4.746;2023-07-29T13:17:49;67.07;;;63.72;;
37495;SDS011;23346;52.088;4.746;2023-07-29T13:20:15;77.20;;;73.30;;
37495;SDS011;23346;52.088;4.746;2023-07-29T13:22:41;70.65;;;67.35;;
37495;SDS011;23346;52.088;4.746;2023-07-29T13:25:07;75.05;;;71.45;;
37495;SDS011;23346;52.088;4.746;2023-07-29T13:27:33;70.60;;;67.10;;
37495;SDS011;23346;52.088;4.746;2023-07-29T13:29:59;71.47;;;68.00;;
37495;SDS011;23346;52.088;4.746;2023-07-29T13:32:25;61.90;;;58.85;;
37495;SDS011;23346;52.088;4.746;2023-07-29T13:34:51;63.40;;;60.13;;
37495;SDS011;23346;52.088;4.746;2023-07-29T13:37:17;78.72;;;74.53;;
37495;SDS011;23346;52.088;4.746;2023-07-29T13:39:43;71.70;;;68.25;;
37495;SDS011;23346;52.088;4.746;2023-07-29T13:42:09;65.18;;;61.97;;
37495;SDS011;23346;52.088;4.746;2023-07-29T13:44:35;65.75;;;62.47;;
37495;SDS011;23346;52.088;4.746;2023-07-29T13:47:00;72.35;;;68.50;;
37495;SDS011;23346;52.088;4.746;2023-07-29T13:49:26;58.72;;;55.80;;
37495;SDS011;23346;52.088;4.746;2023-07-29T13:51:52;62.15;;;58.80;;
37495;SDS011;23346;52.088;4.746;2023-07-29T13:54:18;59.88;;;56.97;;
37495;SDS011;23346;52.088;4.746;2023-07-29T13:56:44;66.60;;;63.25;;
37495;SDS011;23346;52.088;4.746;2023-07-29T13:59:10;61.60;;;58.50;;
37495;SDS011;23346;52.088;4.746;2023-07-29T14:01:36;62.90;;;59.78;;
37495;SDS011;23346;52.088;4.746;2023-07-29T14:04:02;65.88;;;62.63;;
37495;SDS011;23346;52.088;4.746;2023-07-29T14:06:29;84.95;;;80.57;;
37495;SDS011;23346;52.088;4.746;2023-07-29T14:08:55;74.65;;;70.88;;
37495;SDS011;23346;52.088;4.746;2023-07-29T14:11:21;63.50;;;60.50;;
37495;SDS011;23346;52.088;4.746;2023-07-29T14:13:47;57.70;;;55.00;;